ウルムチ の空港の天気 - METARとTAF

ウルムチ地窩堡国際空港 ( ZWWW / URC ) - 中国 新疆ウイグル自治区ウルムチ市
飛行場実況気象(Metar)
観測時間07/07 19:00 CST (07/07 11:00 UTC)
風向・風速東 2m/s
視程10km以上
天気現象
なし
気温27℃
湿度39%
気圧1011hPa
METARZWWW 071100Z 10002MPS 040V210 CAVOK 27/12 Q1011 NOSIG
過去の天気等 Google飛行場航空写真 Wunderground天気予報

過去48時間のMETAR

飛行場予報(TAF)
発表時間: 7/07 17:03 CST (7/07 09:03 UTC)
予報対象時間: 7日20時 CST ~ 8日20時 CST
風向・風速北北西 4m/s
視程10km以上
なし
7日22時 CST ~ 7日23時 CST に徐々に
風向・風速南 4m/s
8日10時 CST ~ 8日11時 CST に徐々に
風向・風速北 4m/s
TAF ZWWW 070903Z 0712/0812 34004MPS CAVOK TX30/0809Z TN20/0723Z
BECMG 0714/0715 18004MPS
BECMG 0802/0803 36004MPS